sensor_id;sensor_type;location;lat;lon;timestamp;P1;durP1;ratioP1;P2;durP2;ratioP2
22687;SDS011;11511;51.514;7.080;2023-07-31T01:03:55;20.95;;;8.38;;
22687;SDS011;11511;51.514;7.080;2023-07-31T12:08:43;6.55;;;2.83;;
22687;SDS011;11511;51.514;7.080;2023-07-31T12:11:16;5.45;;;2.80;;
22687;SDS011;11511;51.514;7.080;2023-07-31T12:13:44;4.95;;;2.70;;
22687;SDS011;11511;51.514;7.080;2023-07-31T12:16:15;5.60;;;2.90;;
22687;SDS011;11511;51.514;7.080;2023-07-31T12:18:43;6.43;;;3.00;;
22687;SDS011;11511;51.514;7.080;2023-07-31T12:21:12;4.43;;;3.20;;
22687;SDS011;11511;51.514;7.080;2023-07-31T12:23:43;6.10;;;3.40;;
22687;SDS011;11511;51.514;7.080;2023-07-31T12:26:18;5.35;;;3.33;;
22687;SDS011;11511;51.514;7.080;2023-07-31T12:28:54;6.85;;;3.20;;
22687;SDS011;11511;51.514;7.080;2023-07-31T12:31:25;3.10;;;2.80;;
22687;SDS011;11511;51.514;7.080;2023-07-31T12:33:56;4.97;;;3.42;;
22687;SDS011;11511;51.514;7.080;2023-07-31T12:36:25;5.28;;;2.80;;
22687;SDS011;11511;51.514;7.080;2023-07-31T12:38:54;5.68;;;3.03;;
22687;SDS011;11511;51.514;7.080;2023-07-31T12:41:27;3.67;;;2.85;;
22687;SDS011;11511;51.514;7.080;2023-07-31T12:47:16;5.25;;;3.38;;
22687;SDS011;11511;51.514;7.080;2023-07-31T12:49:57;3.75;;;3.20;;
22687;SDS011;11511;51.514;7.080;2023-07-31T12:52:28;6.72;;;2.88;;
22687;SDS011;11511;51.514;7.080;2023-07-31T12:55:02;6.50;;;2.83;;
22687;SDS011;11511;51.514;7.080;2023-07-31T12:57:58;4.03;;;2.50;;
22687;SDS011;11511;51.514;7.080;2023-07-31T13:00:29;7.53;;;2.53;;
22687;SDS011;11511;51.514;7.080;2023-07-31T13:02:55;2.90;;;2.30;;
22687;SDS011;11511;51.514;7.080;2023-07-31T13:05:29;3.30;;;2.53;;
22687;SDS011;11511;51.514;7.080;2023-07-31T13:08:01;4.47;;;2.47;;
22687;SDS011;11511;51.514;7.080;2023-07-31T13:10:52;2.67;;;2.22;;
22687;SDS011;11511;51.514;7.080;2023-07-31T13:13:28;3.30;;;2.30;;
22687;SDS011;11511;51.514;7.080;2023-07-31T13:16:18;6.10;;;2.75;;
22687;SDS011;11511;51.514;7.080;2023-07-31T13:18:58;3.45;;;2.25;;
22687;SDS011;11511;51.514;7.080;2023-07-31T13:21:25;3.55;;;2.05;;
22687;SDS011;11511;51.514;7.080;2023-07-31T13:24:02;2.78;;;2.40;;
22687;SDS011;11511;51.514;7.080;2023-07-31T13:26:36;4.70;;;2.50;;
22687;SDS011;11511;51.514;7.080;2023-07-31T13:29:03;4.50;;;2.25;;
22687;SDS011;11511;51.514;7.080;2023-07-31T13:31:31;2.97;;;2.50;;
22687;SDS011;11511;51.514;7.080;2023-07-31T13:34:22;3.78;;;2.22;;
22687;SDS011;11511;51.514;7.080;2023-07-31T13:36:54;5.97;;;2.38;;
22687;SDS011;11511;51.514;7.080;2023-07-31T13:39:25;3.15;;;2.38;;
22687;SDS011;11511;51.514;7.080;2023-07-31T13:41:56;2.50;;;2.30;;
22687;SDS011;11511;51.514;7.080;2023-07-31T13:44:43;3.78;;;2.55;;
22687;SDS011;11511;51.514;7.080;2023-07-31T13:47:15;2.97;;;2.20;;
22687;SDS011;11511;51.514;7.080;2023-07-31T13:49:50;3.65;;;2.67;;
22687;SDS011;11511;51.514;7.080;2023-07-31T13:52:18;3.90;;;2.60;;
22687;SDS011;11511;51.514;7.080;2023-07-31T13:54:45;4.75;;;2.63;;
22687;SDS011;11511;51.514;7.080;2023-07-31T13:57:12;5.82;;;2.80;;
22687;SDS011;11511;51.514;7.080;2023-07-31T13:59:45;3.42;;;2.85;;
22687;SDS011;11511;51.514;7.080;2023-07-31T14:02:13;3.42;;;2.88;;
22687;SDS011;11511;51.514;7.080;2023-07-31T14:04:47;3.95;;;2.80;;
22687;SDS011;11511;51.514;7.080;2023-07-31T14:07:15;5.05;;;3.03;;
22687;SDS011;11511;51.514;7.080;2023-07-31T14:09:44;3.78;;;2.97;;
22687;SDS011;11511;51.514;7.080;2023-07-31T14:12:16;5.30;;;3.10;;
22687;SDS011;11511;51.514;7.080;2023-07-31T14:14:54;6.30;;;3.10;;
22687;SDS011;11511;51.514;7.080;2023-07-31T14:17:25;4.70;;;2.65;;
22687;SDS011;11511;51.514;7.080;2023-07-31T14:19:52;4.72;;;3.05;;
22687;SDS011;11511;51.514;7.080;2023-07-31T14:22:29;4.05;;;2.58;;
22687;SDS011;11511;51.514;7.080;2023-07-31T14:25:01;5.63;;;3.00;;
22687;SDS011;11511;51.514;7.080;2023-07-31T14:27:34;4.28;;;2.75;;
22687;SDS011;11511;51.514;7.080;2023-07-31T14:30:11;3.80;;;2.80;;
22687;SDS011;11511;51.514;7.080;2023-07-31T14:32:39;7.22;;;3.13;;
22687;SDS011;11511;51.514;7.080;2023-07-31T14:35:22;6.60;;;3.10;;
22687;SDS011;11511;51.514;7.080;2023-07-31T14:37:50;5.65;;;3.30;;
22687;SDS011;11511;51.514;7.080;2023-07-31T14:40:21;4.78;;;3.25;;
22687;SDS011;11511;51.514;7.080;2023-07-31T14:42:54;4.68;;;3.10;;
22687;SDS011;11511;51.514;7.080;2023-07-31T14:45:32;4.95;;;3.10;;
22687;SDS011;11511;51.514;7.080;2023-07-31T14:48:07;4.38;;;3.42;;
22687;SDS011;11511;51.514;7.080;2023-07-31T14:50:39;6.35;;;3.65;;
22687;SDS011;11511;51.514;7.080;2023-07-31T14:53:08;7.95;;;3.30;;
22687;SDS011;11511;51.514;7.080;2023-07-31T14:55:37;5.20;;;3.13;;
22687;SDS011;11511;51.514;7.080;2023-07-31T14:58:05;5.93;;;3.10;;
22687;SDS011;11511;51.514;7.080;2023-07-31T15:00:41;6.32;;;3.72;;
22687;SDS011;11511;51.514;7.080;2023-07-31T15:03:18;5.90;;;3.40;;
22687;SDS011;11511;51.514;7.080;2023-07-31T15:05:45;5.70;;;3.45;;
22687;SDS011;11511;51.514;7.080;2023-07-31T15:08:15;5.28;;;3.47;;
22687;SDS011;11511;51.514;7.080;2023-07-31T15:10:42;5.63;;;3.53;;
22687;SDS011;11511;51.514;7.080;2023-07-31T15:13:14;5.20;;;4.05;;
22687;SDS011;11511;51.514;7.080;2023-07-31T15:15:42;5.55;;;3.55;;
22687;SDS011;11511;51.514;7.080;2023-07-31T15:18:11;5.63;;;3.72;;
22687;SDS011;11511;51.514;7.080;2023-07-31T15:20:41;5.38;;;3.63;;
22687;SDS011;11511;51.514;7.080;2023-07-31T15:23:28;5.65;;;3.75;;
22687;SDS011;11511;51.514;7.080;2023-07-31T15:26:04;6.40;;;3.80;;
22687;SDS011;11511;51.514;7.080;2023-07-31T15:28:43;6.22;;;3.85;;
22687;SDS011;11511;51.514;7.080;2023-07-31T15:31:19;8.85;;;4.13;;
22687;SDS011;11511;51.514;7.080;2023-07-31T15:33:57;6.03;;;3.78;;
22687;SDS011;11511;51.514;7.080;2023-07-31T15:36:46;6.45;;;3.70;;
22687;SDS011;11511;51.514;7.080;2023-07-31T15:39:28;5.85;;;3.80;;
22687;SDS011;11511;51.514;7.080;2023-07-31T15:42:00;7.05;;;4.00;;
22687;SDS011;11511;51.514;7.080;2023-07-31T15:44:30;6.70;;;3.67;;
22687;SDS011;11511;51.514;7.080;2023-07-31T15:46:57;7.65;;;4.00;;
22687;SDS011;11511;51.514;7.080;2023-07-31T15:49:28;4.55;;;3.30;;
22687;SDS011;11511;51.514;7.080;2023-07-31T15:51:58;5.65;;;3.50;;
22687;SDS011;11511;51.514;7.080;2023-07-31T15:54:28;5.85;;;3.90;;
22687;SDS011;11511;51.514;7.080;2023-07-31T15:57:00;6.55;;;3.88;;
22687;SDS011;11511;51.514;7.080;2023-07-31T15:59:45;5.80;;;3.83;;
22687;SDS011;11511;51.514;7.080;2023-07-31T16:02:14;6.00;;;3.45;;
22687;SDS011;11511;51.514;7.080;2023-07-31T16:04:41;6.35;;;3.83;;
22687;SDS011;11511;51.514;7.080;2023-07-31T16:07:10;7.38;;;3.78;;
22687;SDS011;11511;51.514;7.080;2023-07-31T16:09:40;5.13;;;3.88;;
22687;SDS011;11511;51.514;7.080;2023-07-31T16:12:15;7.15;;;3.85;;
22687;SDS011;11511;51.514;7.080;2023-07-31T16:14:42;4.70;;;3.63;;
22687;SDS011;11511;51.514;7.080;2023-07-31T16:17:09;7.63;;;3.80;;
22687;SDS011;11511;51.514;7.080;2023-07-31T16:19:37;9.98;;;4.55;;
22687;SDS011;11511;51.514;7.080;2023-07-31T16:22:05;9.27;;;4.53;;
22687;SDS011;11511;51.514;7.080;2023-07-31T16:24:33;6.85;;;4.22;;
22687;SDS011;11511;51.514;7.080;2023-07-31T16:27:00;6.45;;;4.20;;
22687;SDS011;11511;51.514;7.080;2023-07-31T16:29:37;6.70;;;4.65;;
22687;SDS011;11511;51.514;7.080;2023-07-31T16:32:08;7.53;;;4.60;;
22687;SDS011;11511;51.514;7.080;2023-07-31T16:34:37;8.35;;;5.15;;
22687;SDS011;11511;51.514;7.080;2023-07-31T16:37:06;8.75;;;5.05;;
22687;SDS011;11511;51.514;7.080;2023-07-31T16:39:33;9.43;;;5.38;;
22687;SDS011;11511;51.514;7.080;2023-07-31T16:42:04;11.27;;;4.78;;
22687;SDS011;11511;51.514;7.080;2023-07-31T16:44:32;8.57;;;5.13;;
22687;SDS011;11511;51.514;7.080;2023-07-31T16:46:59;6.80;;;5.20;;
22687;SDS011;11511;51.514;7.080;2023-07-31T16:49:31;7.88;;;5.63;;
22687;SDS011;11511;51.514;7.080;2023-07-31T16:52:03;7.90;;;5.25;;
22687;SDS011;11511;51.514;7.080;2023-07-31T16:54:34;13.13;;;5.55;;
22687;SDS011;11511;51.514;7.080;2023-07-31T16:57:04;12.43;;;5.80;;
22687;SDS011;11511;51.514;7.080;2023-07-31T16:59:37;9.00;;;5.63;;
22687;SDS011;11511;51.514;7.080;2023-07-31T17:02:06;9.88;;;5.47;;
22687;SDS011;11511;51.514;7.080;2023-07-31T17:04:43;9.20;;;5.07;;
22687;SDS011;11511;51.514;7.080;2023-07-31T17:07:12;7.10;;;4.75;;
22687;SDS011;11511;51.514;7.080;2023-07-31T17:09:39;6.40;;;4.50;;
22687;SDS011;11511;51.514;7.080;2023-07-31T17:15:00;8.55;;;4.25;;
22687;SDS011;11511;51.514;7.080;2023-07-31T17:17:29;5.22;;;3.72;;
22687;SDS011;11511;51.514;7.080;2023-07-31T17:20:18;7.15;;;3.60;;
22687;SDS011;11511;51.514;7.080;2023-07-31T17:22:51;7.22;;;3.90;;
22687;SDS011;11511;51.514;7.080;2023-07-31T17:25:31;5.35;;;3.22;;
22687;SDS011;11511;51.514;7.080;2023-07-31T17:27:58;5.00;;;3.22;;
22687;SDS011;11511;51.514;7.080;2023-07-31T17:30:30;5.78;;;3.70;;
22687;SDS011;11511;51.514;7.080;2023-07-31T17:32:58;7.22;;;3.47;;
22687;SDS011;11511;51.514;7.080;2023-07-31T17:35:33;4.57;;;3.10;;
22687;SDS011;11511;51.514;7.080;2023-07-31T17:38:03;3.78;;;3.08;;
22687;SDS011;11511;51.514;7.080;2023-07-31T17:40:34;8.77;;;2.92;;
22687;SDS011;11511;51.514;7.080;2023-07-31T17:43:06;5.50;;;3.03;;
22687;SDS011;11511;51.514;7.080;2023-07-31T17:45:36;4.32;;;2.83;;
22687;SDS011;11511;51.514;7.080;2023-07-31T17:48:23;3.50;;;3.00;;
22687;SDS011;11511;51.514;7.080;2023-07-31T17:50:51;4.60;;;3.20;;
22687;SDS011;11511;51.514;7.080;2023-07-31T17:53:23;7.28;;;3.60;;
22687;SDS011;11511;51.514;7.080;2023-07-31T17:56:09;7.22;;;3.65;;
22687;SDS011;11511;51.514;7.080;2023-07-31T17:58:38;6.47;;;3.65;;
22687;SDS011;11511;51.514;7.080;2023-07-31T18:01:11;4.63;;;4.00;;
22687;SDS011;11511;51.514;7.080;2023-07-31T18:03:45;4.88;;;3.90;;
22687;SDS011;11511;51.514;7.080;2023-07-31T18:06:16;5.43;;;3.90;;
22687;SDS011;11511;51.514;7.080;2023-07-31T18:08:46;7.13;;;3.80;;
22687;SDS011;11511;51.514;7.080;2023-07-31T18:11:19;6.97;;;3.95;;
22687;SDS011;11511;51.514;7.080;2023-07-31T18:16:26;6.93;;;3.65;;
22687;SDS011;11511;51.514;7.080;2023-07-31T18:19:04;8.05;;;3.70;;
22687;SDS011;11511;51.514;7.080;2023-07-31T18:21:35;15.18;;;4.15;;
22687;SDS011;11511;51.514;7.080;2023-07-31T18:26:39;5.00;;;2.90;;
22687;SDS011;11511;51.514;7.080;2023-07-31T18:29:10;9.25;;;2.80;;
22687;SDS011;11511;51.514;7.080;2023-07-31T18:31:40;5.78;;;3.13;;
22687;SDS011;11511;51.514;7.080;2023-07-31T18:34:08;4.38;;;3.15;;
22687;SDS011;11511;51.514;7.080;2023-07-31T18:36:38;6.43;;;2.80;;
22687;SDS011;11511;51.514;7.080;2023-07-31T18:39:19;3.65;;;2.80;;
22687;SDS011;11511;51.514;7.080;2023-07-31T18:41:46;4.47;;;3.15;;
22687;SDS011;11511;51.514;7.080;2023-07-31T18:44:16;5.80;;;2.97;;
22687;SDS011;11511;51.514;7.080;2023-07-31T18:46:46;4.80;;;3.00;;
22687;SDS011;11511;51.514;7.080;2023-07-31T18:49:14;4.82;;;2.85;;
22687;SDS011;11511;51.514;7.080;2023-07-31T18:51:46;4.03;;;2.42;;
22687;SDS011;11511;51.514;7.080;2023-07-31T18:54:16;4.50;;;3.00;;
22687;SDS011;11511;51.514;7.080;2023-07-31T18:56:43;3.45;;;2.33;;
22687;SDS011;11511;51.514;7.080;2023-07-31T18:59:10;5.78;;;2.58;;
22687;SDS011;11511;51.514;7.080;2023-07-31T19:01:39;6.15;;;2.67;;
22687;SDS011;11511;51.514;7.080;2023-07-31T19:04:10;2.70;;;2.25;;
22687;SDS011;11511;51.514;7.080;2023-07-31T19:06:40;3.42;;;2.72;;
22687;SDS011;11511;51.514;7.080;2023-07-31T19:09:30;3.75;;;2.70;;
22687;SDS011;11511;51.514;7.080;2023-07-31T19:12:05;5.60;;;2.40;;
22687;SDS011;11511;51.514;7.080;2023-07-31T19:14:33;6.22;;;2.40;;
22687;SDS011;11511;51.514;7.080;2023-07-31T19:17:15;3.40;;;2.20;;
22687;SDS011;11511;51.514;7.080;2023-07-31T19:19:50;3.83;;;2.38;;
22687;SDS011;11511;51.514;7.080;2023-07-31T19:22:21;4.50;;;2.42;;
22687;SDS011;11511;51.514;7.080;2023-07-31T19:24:48;3.13;;;2.33;;
22687;SDS011;11511;51.514;7.080;2023-07-31T19:27:23;2.85;;;2.40;;
22687;SDS011;11511;51.514;7.080;2023-07-31T19:29:55;2.83;;;2.10;;
22687;SDS011;11511;51.514;7.080;2023-07-31T19:32:22;4.50;;;1.67;;
22687;SDS011;11511;51.514;7.080;2023-07-31T19:34:51;3.85;;;2.10;;
22687;SDS011;11511;51.514;7.080;2023-07-31T19:37:20;2.88;;;1.90;;
22687;SDS011;11511;51.514;7.080;2023-07-31T19:39:48;2.58;;;2.10;;
22687;SDS011;11511;51.514;7.080;2023-07-31T19:42:19;2.03;;;1.60;;
22687;SDS011;11511;51.514;7.080;2023-07-31T19:44:48;2.88;;;1.83;;
22687;SDS011;11511;51.514;7.080;2023-07-31T19:47:16;2.58;;;1.85;;
22687;SDS011;11511;51.514;7.080;2023-07-31T19:49:50;4.40;;;1.95;;
22687;SDS011;11511;51.514;7.080;2023-07-31T19:52:19;2.17;;;1.65;;
22687;SDS011;11511;51.514;7.080;2023-07-31T19:54:48;2.75;;;1.83;;
22687;SDS011;11511;51.514;7.080;2023-07-31T19:57:18;3.90;;;1.70;;
22687;SDS011;11511;51.514;7.080;2023-07-31T19:59:45;2.13;;;1.70;;
22687;SDS011;11511;51.514;7.080;2023-07-31T20:02:14;2.20;;;1.70;;
22687;SDS011;11511;51.514;7.080;2023-07-31T20:04:47;4.43;;;1.70;;
22687;SDS011;11511;51.514;7.080;2023-07-31T20:07:21;2.72;;;1.83;;
22687;SDS011;11511;51.514;7.080;2023-07-31T20:10:26;2.63;;;1.67;;
22687;SDS011;11511;51.514;7.080;2023-07-31T20:12:53;3.03;;;2.10;;
22687;SDS011;11511;51.514;7.080;2023-07-31T20:15:40;1.95;;;1.65;;
22687;SDS011;11511;51.514;7.080;2023-07-31T20:18:10;2.10;;;1.88;;
22687;SDS011;11511;51.514;7.080;2023-07-31T20:20:40;2.58;;;1.73;;
22687;SDS011;11511;51.514;7.080;2023-07-31T20:23:16;2.65;;;1.60;;
22687;SDS011;11511;51.514;7.080;2023-07-31T20:25:45;2.22;;;1.77;;
22687;SDS011;11511;51.514;7.080;2023-07-31T20:28:21;2.70;;;1.63;;
22687;SDS011;11511;51.514;7.080;2023-07-31T20:30:54;2.88;;;2.00;;
22687;SDS011;11511;51.514;7.080;2023-07-31T20:33:42;2.53;;;1.95;;
22687;SDS011;11511;51.514;7.080;2023-07-31T20:36:13;3.92;;;1.80;;
22687;SDS011;11511;51.514;7.080;2023-07-31T20:38:41;2.20;;;1.83;;
22687;SDS011;11511;51.514;7.080;2023-07-31T20:41:11;3.85;;;1.60;;
22687;SDS011;11511;51.514;7.080;2023-07-31T20:43:41;2.60;;;1.88;;
22687;SDS011;11511;51.514;7.080;2023-07-31T20:46:14;2.53;;;1.65;;
22687;SDS011;11511;51.514;7.080;2023-07-31T20:48:44;2.22;;;1.83;;
22687;SDS011;11511;51.514;7.080;2023-07-31T20:51:11;2.90;;;1.65;;
22687;SDS011;11511;51.514;7.080;2023-07-31T20:53:41;2.28;;;1.75;;
22687;SDS011;11511;51.514;7.080;2023-07-31T20:56:22;3.08;;;1.60;;
22687;SDS011;11511;51.514;7.080;2023-07-31T20:58:50;4.50;;;1.60;;
22687;SDS011;11511;51.514;7.080;2023-07-31T21:01:18;2.30;;;1.63;;
22687;SDS011;11511;51.514;7.080;2023-07-31T21:03:48;5.80;;;1.70;;
22687;SDS011;11511;51.514;7.080;2023-07-31T21:06:24;5.47;;;1.58;;
22687;SDS011;11511;51.514;7.080;2023-07-31T21:08:56;2.13;;;1.70;;
22687;SDS011;11511;51.514;7.080;2023-07-31T21:14:03;3.35;;;1.65;;
22687;SDS011;11511;51.514;7.080;2023-07-31T21:16:37;1.73;;;1.60;;
22687;SDS011;11511;51.514;7.080;2023-07-31T21:19:05;2.25;;;1.58;;
22687;SDS011;11511;51.514;7.080;2023-07-31T21:21:35;4.10;;;1.60;;
22687;SDS011;11511;51.514;7.080;2023-07-31T21:24:09;1.75;;;1.60;;
22687;SDS011;11511;51.514;7.080;2023-07-31T21:26:45;2.65;;;1.60;;
22687;SDS011;11511;51.514;7.080;2023-07-31T21:29:16;3.28;;;1.70;;
22687;SDS011;11511;51.514;7.080;2023-07-31T21:34:52;1.90;;;1.50;;
22687;SDS011;11511;51.514;7.080;2023-07-31T21:37:30;1.48;;;1.35;;
22687;SDS011;11511;51.514;7.080;2023-07-31T21:40:15;1.92;;;1.60;;
22687;SDS011;11511;51.514;7.080;2023-07-31T21:43:08;2.97;;;1.60;;
22687;SDS011;11511;51.514;7.080;2023-07-31T21:46:10;3.45;;;1.80;;
22687;SDS011;11511;51.514;7.080;2023-07-31T21:49:18;2.50;;;1.40;;
22687;SDS011;11511;51.514;7.080;2023-07-31T21:52:10;2.88;;;1.40;;
22687;SDS011;11511;51.514;7.080;2023-07-31T22:02:10;2.55;;;1.50;;
22687;SDS011;11511;51.514;7.080;2023-07-31T22:05:05;1.95;;;1.20;;
22687;SDS011;11511;51.514;7.080;2023-07-31T22:07:37;2.22;;;1.45;;
22687;SDS011;11511;51.514;7.080;2023-07-31T22:10:14;1.83;;;1.30;;
22687;SDS011;11511;51.514;7.080;2023-07-31T22:13:06;2.58;;;1.33;;
22687;SDS011;11511;51.514;7.080;2023-07-31T22:15:34;2.08;;;1.40;;
22687;SDS011;11511;51.514;7.080;2023-07-31T22:19:13;2.55;;;1.60;;
22687;SDS011;11511;51.514;7.080;2023-07-31T22:21:44;2.58;;;1.60;;
22687;SDS011;11511;51.514;7.080;2023-07-31T22:24:51;2.15;;;1.50;;
22687;SDS011;11511;51.514;7.080;2023-07-31T22:27:19;4.40;;;1.58;;
22687;SDS011;11511;51.514;7.080;2023-07-31T22:29:50;1.48;;;1.35;;
22687;SDS011;11511;51.514;7.080;2023-07-31T22:32:17;4.65;;;1.63;;
22687;SDS011;11511;51.514;7.080;2023-07-31T22:34:59;2.33;;;2.08;;
22687;SDS011;11511;51.514;7.080;2023-07-31T22:41:07;3.38;;;3.03;;
22687;SDS011;11511;51.514;7.080;2023-07-31T22:44:16;4.18;;;3.05;;
22687;SDS011;11511;51.514;7.080;2023-07-31T22:46:54;4.25;;;3.67;;
22687;SDS011;11511;51.514;7.080;2023-07-31T22:49:31;4.30;;;3.90;;
22687;SDS011;11511;51.514;7.080;2023-07-31T22:51:58;4.60;;;4.20;;
22687;SDS011;11511;51.514;7.080;2023-07-31T22:54:36;5.80;;;4.10;;
22687;SDS011;11511;51.514;7.080;2023-07-31T22:57:15;5.60;;;4.68;;
22687;SDS011;11511;51.514;7.080;2023-07-31T23:02:55;6.63;;;4.80;;
22687;SDS011;11511;51.514;7.080;2023-07-31T23:06:04;5.78;;;4.68;;
22687;SDS011;11511;51.514;7.080;2023-07-31T23:08:42;4.60;;;4.18;;
22687;SDS011;11511;51.514;7.080;2023-07-31T23:11:19;6.82;;;4.22;;
22687;SDS011;11511;51.514;7.080;2023-07-31T23:14:08;7.00;;;4.50;;
22687;SDS011;11511;51.514;7.080;2023-07-31T23:17:26;5.88;;;4.95;;
22687;SDS011;11511;51.514;7.080;2023-07-31T23:20:25;6.60;;;4.82;;
22687;SDS011;11511;51.514;7.080;2023-07-31T23:26:29;8.90;;;4.97;;
22687;SDS011;11511;51.514;7.080;2023-07-31T23:29:28;8.48;;;5.70;;
22687;SDS011;11511;51.514;7.080;2023-07-31T23:32:23;11.70;;;6.72;;
22687;SDS011;11511;51.514;7.080;2023-07-31T23:35:34;10.30;;;6.43;;
22687;SDS011;11511;51.514;7.080;2023-07-31T23:38:37;5.75;;;4.43;;
22687;SDS011;11511;51.514;7.080;2023-07-31T23:42:07;6.43;;;3.55;;
22687;SDS011;11511;51.514;7.080;2023-07-31T23:48:17;3.92;;;2.95;;
22687;SDS011;11511;51.514;7.080;2023-07-31T23:54:56;1.67;;;1.58;;
